createdAt,value
2018-02-24T00:01:33.019Z,12.33
2018-02-24T00:04:01.727Z,12.53
2018-02-24T00:06:29.390Z,10.47
2018-02-24T00:08:57.439Z,11.57
2018-02-24T00:11:25.818Z,11.77
2018-02-24T00:13:54.413Z,11.30
2018-02-24T00:16:22.061Z,13.17
2018-02-24T00:18:49.857Z,12.40
2018-02-24T00:21:17.743Z,11.53
2018-02-24T00:23:45.385Z,12.70
2018-02-24T00:26:14.505Z,12.30
2018-02-24T00:28:43.911Z,12.50
2018-02-24T00:31:11.558Z,11.00
2018-02-24T00:33:39.319Z,11.77
2018-02-24T00:36:07.398Z,10.23
2018-02-24T00:38:35.113Z,12.17
2018-02-24T00:41:03.880Z,11.63
2018-02-24T00:43:32.248Z,11.40
2018-02-24T00:45:59.894Z,11.53
2018-02-24T00:48:27.699Z,11.83
2018-02-24T00:50:56.162Z,12.13
2018-02-24T00:53:25.154Z,11.40
2018-02-24T00:55:52.799Z,11.83
2018-02-24T00:58:23.292Z,12.23
2018-02-24T01:00:51.678Z,11.97
2018-02-24T01:03:19.336Z,11.00
2018-02-24T01:05:46.954Z,10.43
2018-02-24T01:08:18.627Z,11.93
2018-02-24T01:10:46.300Z,12.13
2018-02-24T01:13:13.955Z,9.77
2018-02-24T01:15:41.657Z,10.60
2018-02-24T01:18:09.306Z,9.13
2018-02-24T01:20:36.946Z,12.67
2018-02-24T01:23:04.605Z,13.17
2018-02-24T01:25:32.232Z,13.57
2018-02-24T01:28:00.638Z,12.47
2018-02-24T01:30:28.315Z,13.20
2018-02-24T01:32:55.975Z,11.53
2018-02-24T01:35:23.593Z,12.37
2018-02-24T01:37:52.020Z,12.10
2018-02-24T01:40:19.639Z,13.03
2018-02-24T01:42:48.126Z,12.53
2018-02-24T01:45:15.814Z,12.47
2018-02-24T01:47:43.431Z,10.90
2018-02-24T01:50:11.821Z,11.37
2018-02-24T01:52:39.500Z,10.47
2018-02-24T01:55:07.169Z,11.90
2018-02-24T01:57:34.766Z,11.87
2018-02-24T02:00:03.156Z,11.20
2018-02-24T02:02:31.530Z,10.10
2018-02-24T02:04:59.141Z,12.07
2018-02-24T02:07:26.828Z,12.03
2018-02-24T02:09:54.445Z,11.77
2018-02-24T02:12:22.068Z,10.63
2018-02-24T02:14:50.568Z,11.33
2018-02-24T02:17:19.082Z,13.37
2018-02-24T02:19:46.685Z,13.73
2018-02-24T02:22:14.342Z,11.87
2018-02-24T02:24:42.071Z,11.30
2018-02-24T02:27:09.664Z,11.73
2018-02-24T02:29:37.263Z,12.03
2018-02-24T02:32:04.908Z,12.30
2018-02-24T02:34:33.285Z,10.87
2018-02-24T02:37:01.669Z,11.17
2018-02-24T02:39:30.100Z,10.47
2018-02-24T02:41:57.714Z,10.93
2018-02-24T02:44:26.085Z,9.83
2018-02-24T02:46:54.513Z,10.43
2018-02-24T02:49:22.138Z,9.60
2018-02-24T02:51:49.757Z,11.03
2018-02-24T02:54:17.400Z,10.80
2018-02-24T02:56:45.011Z,9.93
2018-02-24T02:59:13.387Z,10.00
2018-02-24T03:01:41.780Z,10.30
2018-02-24T03:04:09.385Z,10.30
2018-02-24T03:06:37.039Z,11.03
2018-02-24T03:09:04.630Z,10.40
2018-02-24T03:11:33.000Z,9.80
2018-02-24T03:14:00.673Z,9.60
2018-02-24T03:16:29.042Z,9.83
2018-02-24T03:18:56.674Z,10.20
2018-02-24T03:21:24.302Z,9.47
2018-02-24T03:23:51.905Z,10.20
2018-02-24T03:26:19.499Z,10.10
2018-02-24T03:28:47.966Z,9.77
2018-02-24T03:31:15.574Z,9.80
2018-02-24T03:33:43.191Z,10.00
2018-02-24T03:36:11.596Z,9.30
2018-02-24T03:38:39.230Z,9.70
2018-02-24T03:41:07.655Z,9.43
2018-02-24T03:43:35.307Z,9.23
2018-02-24T03:46:05.470Z,8.87
2018-02-24T03:48:33.111Z,8.50
2018-02-24T03:51:00.727Z,8.70
2018-02-24T03:53:28.323Z,9.40
2018-02-24T03:55:56.074Z,8.57
2018-02-24T03:58:23.678Z,9.13
2018-02-24T04:00:51.285Z,8.87
2018-02-24T04:03:18.958Z,8.97
2018-02-24T04:05:46.567Z,9.77
2018-02-24T04:08:14.196Z,8.63
2018-02-24T04:10:41.815Z,8.80
2018-02-24T04:13:09.430Z,9.23
2018-02-24T04:15:37.041Z,8.87
2018-02-24T04:18:04.667Z,9.37
2018-02-24T04:20:33.042Z,9.80
2018-02-24T04:23:00.671Z,8.87
2018-02-24T04:25:28.314Z,9.60
2018-02-24T04:27:55.958Z,10.27
2018-02-24T04:30:23.589Z,9.27
2018-02-24T04:32:51.998Z,9.90
2018-02-24T04:35:19.661Z,9.23
2018-02-24T04:37:47.319Z,9.60
2018-02-24T04:40:14.922Z,10.17
2018-02-24T04:42:42.569Z,9.60
2018-02-24T04:45:10.210Z,9.77
2018-02-24T04:47:38.690Z,8.33
2018-02-24T04:50:06.430Z,10.00
2018-02-24T04:52:34.993Z,10.13
2018-02-24T04:55:03.381Z,9.27
2018-02-24T04:57:31.831Z,9.27
2018-02-24T04:59:59.434Z,9.47
2018-02-24T05:02:27.802Z,9.97
2018-02-24T05:04:56.220Z,9.93
2018-02-24T05:07:23.822Z,9.70
2018-02-24T05:09:51.440Z,9.63
2018-02-24T05:12:19.084Z,9.73
2018-02-24T05:14:46.703Z,8.20
2018-02-24T05:17:14.333Z,8.97
2018-02-24T05:19:42.780Z,9.67
2018-02-24T05:22:10.912Z,9.03
2018-02-24T05:24:39.873Z,9.13
2018-02-24T05:27:07.746Z,9.10
2018-02-24T05:29:35.791Z,8.30
2018-02-24T05:32:03.406Z,8.87
2018-02-24T05:34:31.828Z,8.10
2018-02-24T05:36:59.552Z,9.40
2018-02-24T05:39:27.929Z,8.07
2018-02-24T05:41:56.379Z,8.33
2018-02-24T05:44:24.030Z,8.43
2018-02-24T05:46:51.621Z,9.10
2018-02-24T05:49:19.267Z,8.83
2018-02-24T05:51:46.909Z,8.07
2018-02-24T05:54:14.509Z,9.27
2018-02-24T05:56:42.913Z,9.00
2018-02-24T05:59:10.734Z,8.70
2018-02-24T06:01:38.368Z,7.93
2018-02-24T06:04:05.977Z,8.20
2018-02-24T06:06:34.408Z,8.17
2018-02-24T06:09:02.065Z,8.10
2018-02-24T06:11:29.974Z,7.20
2018-02-24T06:13:58.385Z,7.23
2018-02-24T06:16:26.027Z,6.87
2018-02-24T06:18:54.430Z,5.77
2018-02-24T06:21:22.262Z,6.80
2018-02-24T06:23:50.655Z,6.13
2018-02-24T06:26:18.280Z,7.30
2018-02-24T06:28:47.461Z,6.37
2018-02-24T06:31:15.094Z,6.43
2018-02-24T06:33:42.742Z,6.40
2018-02-24T06:36:10.395Z,6.27
2018-02-24T06:38:38.033Z,6.33
2018-02-24T06:41:06.449Z,6.40
2018-02-24T06:43:34.083Z,6.53
2018-02-24T06:46:02.455Z,6.10
2018-02-24T06:48:30.859Z,6.93
2018-02-24T06:50:58.459Z,5.90
2018-02-24T06:53:26.059Z,6.33
2018-02-24T06:55:54.483Z,5.67
2018-02-24T06:58:22.090Z,5.83
2018-02-24T07:00:49.780Z,5.70
2018-02-24T07:03:17.398Z,5.00
2018-02-24T07:05:44.996Z,3.97
2018-02-24T07:08:12.645Z,3.90
2018-02-24T07:10:41.015Z,4.47
2018-02-24T07:13:09.436Z,3.50
2018-02-24T07:15:37.082Z,2.63
2018-02-24T07:18:05.408Z,2.40
2018-02-24T07:20:33.031Z,2.53
2018-02-24T07:23:01.275Z,3.03
2018-02-24T07:25:29.549Z,2.80
2018-02-24T07:27:57.933Z,2.40
2018-02-24T07:30:26.302Z,2.90
2018-02-24T07:32:54.768Z,2.53
2018-02-24T07:35:22.389Z,2.90
2018-02-24T07:37:50.020Z,3.07
2018-02-24T07:40:17.673Z,1.80
2018-02-24T07:42:45.279Z,2.00
2018-02-24T07:45:12.901Z,2.87
2018-02-24T07:47:40.554Z,2.27
2018-02-24T07:50:08.158Z,2.57
2018-02-24T07:52:35.830Z,2.17
2018-02-24T07:55:03.483Z,2.30
2018-02-24T07:57:31.135Z,2.53
2018-02-24T07:59:58.789Z,1.90
2018-02-24T08:02:26.434Z,2.43
2018-02-24T08:04:54.039Z,2.20
2018-02-24T08:07:21.673Z,2.03
2018-02-24T08:09:49.336Z,2.23
2018-02-24T08:12:16.943Z,1.97
2018-02-24T08:14:46.176Z,1.80
2018-02-24T08:17:13.829Z,1.77
2018-02-24T08:19:41.802Z,1.70
2018-02-24T08:22:10.204Z,1.57
2018-02-24T08:24:37.901Z,2.00
2018-02-24T08:27:06.386Z,1.83
2018-02-24T08:29:38.817Z,1.77
2018-02-24T08:32:16.097Z,1.70
2018-02-24T08:34:43.818Z,2.00
2018-02-24T08:37:11.725Z,1.90
2018-02-24T08:39:39.365Z,2.07
2018-02-24T08:42:07.029Z,1.97
2018-02-24T08:44:34.721Z,1.90
2018-02-24T08:47:03.325Z,1.50
2018-02-24T08:49:31.010Z,1.93
2018-02-24T08:51:59.364Z,2.10
2018-02-24T08:54:27.020Z,2.13
2018-02-24T08:56:54.642Z,2.10
2018-02-24T08:59:22.323Z,1.97
2018-02-24T09:01:49.968Z,1.57
2018-02-24T09:04:17.570Z,2.13
2018-02-24T09:06:47.283Z,1.50
2018-02-24T09:09:15.840Z,2.00
2018-02-24T09:14:19.042Z,1.70
2018-02-24T09:17:24.216Z,2.23
2018-02-24T09:19:52.850Z,2.53
2018-02-24T09:22:24.273Z,1.80
2018-02-24T09:24:55.580Z,1.60
2018-02-24T09:27:37.109Z,2.10
2018-02-24T09:30:06.341Z,1.80
2018-02-24T09:32:33.958Z,2.00
2018-02-24T09:35:01.619Z,2.67
2018-02-24T09:37:29.275Z,1.80
2018-02-24T09:39:57.665Z,1.73
2018-02-24T09:42:25.317Z,2.40
2018-02-24T09:44:53.690Z,1.97
2018-02-24T09:47:22.159Z,3.93
2018-02-24T09:49:50.554Z,1.80
2018-02-24T09:52:18.925Z,2.13
2018-02-24T09:54:47.288Z,1.97
2018-02-24T09:57:14.943Z,2.20
2018-02-24T09:59:42.558Z,2.37
2018-02-24T10:02:10.232Z,1.80
2018-02-24T10:04:37.878Z,1.90
2018-02-24T10:07:05.519Z,1.83
2018-02-24T10:09:33.120Z,1.87
2018-02-24T10:12:00.753Z,2.10
2018-02-24T10:14:28.372Z,1.60
2018-02-24T10:16:56.019Z,2.07
2018-02-24T10:19:23.650Z,1.80
2018-02-24T10:21:51.359Z,2.00
2018-02-24T10:24:19.038Z,1.77
2018-02-24T10:26:47.991Z,1.83
2018-02-24T10:29:15.680Z,1.90
2018-02-24T10:31:46.089Z,1.87
2018-02-24T10:34:13.764Z,1.90
2018-02-24T10:36:43.677Z,2.27
2018-02-24T10:39:16.092Z,2.30
2018-02-24T10:41:45.091Z,2.07
2018-02-24T10:46:48.154Z,2.20
2018-02-24T10:49:16.540Z,2.00
2018-02-24T10:51:44.930Z,1.90
2018-02-24T10:54:13.125Z,1.60
2018-02-24T10:56:40.770Z,1.80
2018-02-24T10:59:08.358Z,1.80
2018-02-24T11:01:36.211Z,1.83
2018-02-24T11:04:04.183Z,2.00
2018-02-24T11:06:31.803Z,1.93
2018-02-24T11:09:02.131Z,1.80
2018-02-24T11:11:30.223Z,2.13
2018-02-24T11:13:57.846Z,1.97
2018-02-24T11:16:26.283Z,2.10
2018-02-24T11:18:53.885Z,2.00
2018-02-24T11:21:22.493Z,1.93
2018-02-24T11:23:50.145Z,2.10
2018-02-24T11:26:17.809Z,2.27
2018-02-24T11:28:45.451Z,2.20
2018-02-24T11:31:13.897Z,2.30
2018-02-24T11:33:41.543Z,2.20
2018-02-24T11:36:09.212Z,2.10
2018-02-24T11:38:36.874Z,1.63
2018-02-24T11:41:04.511Z,2.60
2018-02-24T11:43:32.186Z,2.00
2018-02-24T11:45:59.824Z,2.10
2018-02-24T11:48:27.413Z,2.30
2018-02-24T11:50:56.042Z,2.00
2018-02-24T11:53:23.652Z,2.53
2018-02-24T11:55:51.269Z,2.50
2018-02-24T11:58:18.914Z,2.40
2018-02-24T12:00:47.357Z,2.37
2018-02-24T12:03:14.998Z,2.40
2018-02-24T12:05:43.496Z,2.70
2018-02-24T12:08:11.114Z,3.33
2018-02-24T12:10:39.070Z,2.50
2018-02-24T12:13:06.799Z,2.03
2018-02-24T12:15:34.438Z,2.07
2018-02-24T12:18:02.058Z,2.30
2018-02-24T12:20:30.451Z,2.30
2018-02-24T12:22:58.093Z,2.10
2018-02-24T12:25:27.095Z,2.20
2018-02-24T12:27:54.696Z,2.27
2018-02-24T12:30:22.374Z,2.23
2018-02-24T12:32:49.967Z,2.40
2018-02-24T12:35:18.320Z,1.90
2018-02-24T12:37:45.957Z,2.00
2018-02-24T12:40:13.590Z,2.30
2018-02-24T12:42:42.244Z,2.33
2018-02-24T12:45:10.783Z,2.37
2018-02-24T12:47:38.385Z,2.00
2018-02-24T12:50:06.799Z,2.33
2018-02-24T12:52:34.387Z,2.33
2018-02-24T12:55:02.009Z,2.53
2018-02-24T12:57:29.615Z,2.03
2018-02-24T12:59:57.991Z,2.67
2018-02-24T13:02:27.108Z,2.10
2018-02-24T13:04:55.464Z,2.57
2018-02-24T13:07:23.174Z,2.03
2018-02-24T13:09:50.770Z,2.10
2018-02-24T13:12:18.355Z,2.50
2018-02-24T13:14:45.986Z,2.47
2018-02-24T13:17:13.578Z,2.77
2018-02-24T13:19:41.159Z,2.60
2018-02-24T13:22:09.563Z,2.70
2018-02-24T13:24:37.166Z,2.53
2018-02-24T13:27:04.803Z,4.20
2018-02-24T13:29:33.861Z,2.70
2018-02-24T13:32:01.855Z,2.77
2018-02-24T13:34:30.993Z,2.47
2018-02-24T13:36:58.629Z,2.77
2018-02-24T13:39:26.215Z,2.93
2018-02-24T13:41:53.806Z,2.87
2018-02-24T13:44:21.415Z,2.60
2018-02-24T13:46:49.158Z,2.53
2018-02-24T13:52:17.918Z,2.50
2018-02-24T13:54:46.301Z,3.20
2018-02-24T13:57:14.668Z,2.80
2018-02-24T13:59:43.071Z,2.80
2018-02-24T14:02:10.759Z,3.20
2018-02-24T14:04:38.394Z,3.30
2018-02-24T14:07:05.979Z,3.30
2018-02-24T14:09:33.605Z,3.00
2018-02-24T14:12:01.981Z,2.70
2018-02-24T14:14:30.347Z,2.80
2018-02-24T14:16:58.765Z,3.73
2018-02-24T14:19:26.394Z,3.10
2018-02-24T14:21:54.770Z,3.37
2018-02-24T14:24:23.159Z,3.27
2018-02-24T14:26:50.737Z,3.43
2018-02-24T14:29:18.718Z,3.13
2018-02-24T14:31:46.324Z,3.20
2018-02-24T14:34:14.694Z,3.00
2018-02-24T14:36:42.308Z,2.93
2018-02-24T14:39:09.915Z,3.10
2018-02-24T14:41:37.544Z,3.10
2018-02-24T14:44:05.169Z,3.10
2018-02-24T14:46:32.790Z,2.90
2018-02-24T14:49:00.458Z,3.07
2018-02-24T14:51:28.045Z,3.50
2018-02-24T14:53:55.673Z,3.33
2018-02-24T14:56:23.349Z,3.30
2018-02-24T14:58:50.959Z,3.90
2018-02-24T15:01:18.724Z,3.40
2018-02-24T15:03:46.357Z,2.87
2018-02-24T15:06:13.951Z,2.77
2018-02-24T15:08:41.738Z,3.30
2018-02-24T15:11:10.232Z,3.07
2018-02-24T15:13:38.586Z,2.93
2018-02-24T15:16:06.206Z,3.50
2018-02-24T15:18:33.824Z,3.20
2018-02-24T15:21:02.239Z,3.17
2018-02-24T15:23:29.839Z,2.80
2018-02-24T15:25:57.773Z,2.90
2018-02-24T15:28:25.414Z,3.00
2018-02-24T15:30:53.035Z,2.60
2018-02-24T15:33:22.523Z,2.70
2018-02-24T15:35:50.199Z,2.90
2018-02-24T15:38:17.934Z,2.53
2018-02-24T15:40:45.519Z,2.97
2018-02-24T15:43:13.157Z,3.20
2018-02-24T15:45:40.764Z,2.87
2018-02-24T15:48:09.131Z,3.37
2018-02-24T15:50:36.784Z,2.80
2018-02-24T15:53:04.524Z,3.03
2018-02-24T15:55:32.154Z,3.00
2018-02-24T15:57:59.762Z,3.47
2018-02-24T16:00:27.412Z,3.30
2018-02-24T16:02:55.063Z,2.80
2018-02-24T16:05:22.695Z,2.97
2018-02-24T16:07:50.322Z,2.80
2018-02-24T16:10:18.022Z,3.00
2018-02-24T16:12:45.826Z,3.27
2018-02-24T16:15:13.492Z,2.77
2018-02-24T16:17:41.120Z,3.07
2018-02-24T16:20:08.706Z,3.03
2018-02-24T16:22:36.364Z,3.23
2018-02-24T16:25:04.003Z,3.70
2018-02-24T16:27:31.582Z,2.87
2018-02-24T16:29:59.201Z,3.20
2018-02-24T16:32:26.782Z,3.23
2018-02-24T16:34:54.364Z,3.03
2018-02-24T16:37:21.998Z,2.97
2018-02-24T16:39:49.611Z,3.07
2018-02-24T16:44:49.930Z,2.77
2018-02-24T16:47:17.627Z,3.40
2018-02-24T16:49:45.228Z,2.90
2018-02-24T16:52:12.850Z,2.50
2018-02-24T16:54:40.449Z,2.63
2018-02-24T16:57:08.063Z,2.70
2018-02-24T16:59:36.415Z,2.80
2018-02-24T17:02:05.546Z,2.77
2018-02-24T17:04:33.155Z,3.07
2018-02-24T17:07:00.782Z,2.77
2018-02-24T17:09:28.526Z,3.20
2018-02-24T17:11:56.133Z,3.40
2018-02-24T17:14:23.723Z,4.17
2018-02-24T17:16:52.106Z,3.07
2018-02-24T17:19:20.480Z,3.00
2018-02-24T17:21:48.887Z,3.13
2018-02-24T17:24:16.492Z,2.87
2018-02-24T17:26:44.107Z,2.80
2018-02-24T17:29:11.747Z,3.03
2018-02-24T17:31:40.115Z,3.20
2018-02-24T17:34:08.532Z,3.10
2018-02-24T17:36:36.154Z,3.17
2018-02-24T17:39:03.795Z,3.33
2018-02-24T17:41:31.428Z,3.43
2018-02-24T17:43:59.052Z,3.47
2018-02-24T17:46:26.657Z,3.30
2018-02-24T17:48:54.370Z,3.17
2018-02-24T17:51:21.968Z,3.37
2018-02-24T17:53:49.570Z,3.37
2018-02-24T17:56:17.966Z,3.40
2018-02-24T17:58:45.613Z,5.40
2018-02-24T18:01:13.984Z,3.30
2018-02-24T18:03:43.184Z,3.90
2018-02-24T18:06:11.564Z,3.80
2018-02-24T18:08:39.966Z,3.33
2018-02-24T18:11:07.626Z,3.33
2018-02-24T18:13:35.219Z,3.43
2018-02-24T18:16:02.860Z,3.27
2018-02-24T18:18:30.488Z,3.40
2018-02-24T18:20:58.866Z,3.90
2018-02-24T18:23:27.271Z,3.10
2018-02-24T18:25:54.862Z,3.77
2018-02-24T18:28:22.500Z,3.70
2018-02-24T18:30:50.159Z,3.43
2018-02-24T18:33:17.752Z,2.97
2018-02-24T18:35:46.132Z,3.10
2018-02-24T18:38:13.788Z,3.40
2018-02-24T18:40:41.436Z,3.27
2018-02-24T18:43:09.082Z,3.00
2018-02-24T18:45:36.754Z,3.10
2018-02-24T18:48:04.437Z,3.23
2018-02-24T18:50:32.040Z,3.27
2018-02-24T18:52:59.707Z,5.10
2018-02-24T18:55:27.315Z,3.50
2018-02-24T18:57:54.928Z,4.03
2018-02-24T19:00:22.575Z,3.20
2018-02-24T19:02:50.351Z,3.07
2018-02-24T19:05:17.973Z,3.53
2018-02-24T19:07:45.578Z,3.17
2018-02-24T19:10:13.200Z,3.73
2018-02-24T19:12:41.593Z,3.37
2018-02-24T19:15:09.946Z,3.20
2018-02-24T19:17:37.584Z,3.60
2018-02-24T19:20:05.248Z,3.83
2018-02-24T19:22:33.642Z,3.27
2018-02-24T19:25:01.308Z,3.43
2018-02-24T19:27:28.889Z,3.03
2018-02-24T19:29:56.501Z,3.60
2018-02-24T19:32:24.165Z,3.70
2018-02-24T19:34:52.170Z,3.43
2018-02-24T19:37:19.822Z,3.07
2018-02-24T19:39:47.640Z,3.47
2018-02-24T19:42:15.247Z,3.37
2018-02-24T19:44:42.942Z,3.10
2018-02-24T19:47:10.586Z,3.37
2018-02-24T19:49:39.034Z,3.13
2018-02-24T19:52:06.779Z,2.93
2018-02-24T19:54:34.539Z,3.30
2018-02-24T19:57:02.142Z,3.07
2018-02-24T19:59:30.686Z,3.97
2018-02-24T20:01:58.611Z,3.60
2018-02-24T20:04:26.987Z,3.53
2018-02-24T20:06:54.743Z,3.13
2018-02-24T20:09:23.199Z,3.37
2018-02-24T20:11:52.321Z,3.33
2018-02-24T20:14:20.708Z,3.27
2018-02-24T20:16:48.347Z,3.93
2018-02-24T20:19:16.731Z,3.63
2018-02-24T20:21:45.110Z,4.23
2018-02-24T20:24:13.534Z,3.53
2018-02-24T20:26:41.192Z,3.27
2018-02-24T20:29:08.809Z,3.90
2018-02-24T20:31:37.244Z,3.80
2018-02-24T20:34:04.893Z,3.30
2018-02-24T20:36:32.566Z,3.33
2018-02-24T20:39:00.203Z,3.17
2018-02-24T20:41:27.817Z,3.03
2018-02-24T20:43:56.181Z,3.57
2018-02-24T20:46:23.861Z,3.80
2018-02-24T20:48:52.351Z,3.83
2018-02-24T20:51:20.726Z,3.80
2018-02-24T20:53:49.251Z,3.73
2018-02-24T20:56:17.027Z,3.63
2018-02-24T20:58:44.889Z,4.13
2018-02-24T21:01:12.603Z,3.80
2018-02-24T21:03:40.234Z,4.13
2018-02-24T21:06:07.895Z,3.30
2018-02-24T21:08:35.727Z,3.80
2018-02-24T21:11:03.697Z,3.40
2018-02-24T21:13:31.546Z,4.00
2018-02-24T21:15:59.182Z,3.30
2018-02-24T21:18:27.696Z,3.67
2018-02-24T21:20:56.567Z,3.47
2018-02-24T21:23:24.326Z,3.53
2018-02-24T21:25:51.995Z,3.43
2018-02-24T21:28:19.599Z,2.93
2018-02-24T21:30:47.207Z,3.33
2018-02-24T21:33:14.847Z,3.53
2018-02-24T21:35:43.259Z,3.20
2018-02-24T21:38:10.910Z,4.00
2018-02-24T21:40:38.503Z,3.10
2018-02-24T21:43:06.261Z,2.90
2018-02-24T21:45:34.642Z,3.33
2018-02-24T21:48:03.210Z,3.90
2018-02-24T21:50:30.809Z,2.90
2018-02-24T21:52:58.546Z,3.20
2018-02-24T21:55:26.185Z,3.20
2018-02-24T21:57:53.821Z,3.13
2018-02-24T22:00:21.519Z,3.13
2018-02-24T22:02:49.123Z,3.13
2018-02-24T22:05:16.970Z,3.33
2018-02-24T22:07:45.362Z,4.70
2018-02-24T22:10:13.873Z,3.10
2018-02-24T22:12:41.571Z,3.13
2018-02-24T22:15:09.201Z,3.90
2018-02-24T22:17:36.819Z,3.17
2018-02-24T22:20:04.626Z,3.37
2018-02-24T22:22:32.249Z,3.37
2018-02-24T22:25:00.620Z,3.17
2018-02-24T22:27:28.258Z,3.50
2018-02-24T22:29:55.867Z,3.43
2018-02-24T22:32:24.229Z,3.10
2018-02-24T22:34:53.365Z,3.70
2018-02-24T22:37:20.957Z,3.80
2018-02-24T22:39:48.615Z,3.23
2018-02-24T22:42:16.346Z,3.40
2018-02-24T22:44:44.005Z,3.33
2018-02-24T22:47:11.610Z,3.30
2018-02-24T22:49:39.259Z,3.67
2018-02-24T22:52:06.915Z,3.87
2018-02-24T22:54:34.510Z,4.60
2018-02-24T22:57:03.560Z,4.10
2018-02-24T22:59:31.222Z,4.37
2018-02-24T23:01:58.815Z,3.70
2018-02-24T23:04:26.460Z,3.50
2018-02-24T23:06:54.096Z,3.63
2018-02-24T23:09:21.717Z,3.37
2018-02-24T23:11:50.103Z,3.40
2018-02-24T23:14:17.731Z,3.47
2018-02-24T23:16:45.372Z,3.60
2018-02-24T23:19:12.955Z,3.50
2018-02-24T23:21:40.562Z,3.60
2018-02-24T23:24:08.216Z,3.30
2018-02-24T23:26:35.824Z,3.67
2018-02-24T23:29:03.487Z,3.30
2018-02-24T23:31:31.127Z,3.30
2018-02-24T23:33:58.744Z,3.57
2018-02-24T23:36:27.171Z,3.33
2018-02-24T23:38:54.809Z,3.63
2018-02-24T23:41:22.398Z,3.30
2018-02-24T23:43:50.001Z,4.07
2018-02-24T23:46:18.428Z,3.83
2018-02-24T23:48:46.047Z,3.53
2018-02-24T23:51:13.746Z,4.63
2018-02-24T23:53:41.369Z,3.47
2018-02-24T23:56:08.988Z,3.47
2018-02-24T23:58:36.621Z,4.10
